Aniara — SKJC — position and weather

sailwx.info

Track history (hours):
 
Tides and Currents Weather Stations Pressure Air Temp Water Temp Dewpoint Dewpoint Depression Visibility Wind Speed Wind Dir Waves Ship Positions

Aniara

Last reported at 2017-Jan-16 06:31 UTC. Time now 2017-Jan-23 14:48 UTC.
Position N 34°03' E 134°57'.

Length 232 m; draft 8.9 m.

Type: Cargo ship. MMSI: 266282000.

Date/timePositionNaut miles runAvg speedWind from/ knotsBaromVisibWave heightAir tempDewpointWater temp
2017-Jan-16 06:31N 34°03' E 134°57'1916.4
2017-Jan-16 05:22N 34°22' E 135°00'1315.5
2017-Jan-16 04:33N 34°33' E 135°07'1312.9
2017-Jan-16 03:33N 34°34' E 134°51'7 6.6
2017-Jan-16 02:33N 34°40' E 134°48'3 0.1
2017-Jan-14 23:18N 34°43' E 134°51'4 4.9
2017-Jan-14 22:28N 34°39' E 134°49'6 6.4
2017-Jan-14 21:33N 34°37' E 134°56'9 9.2
2017-Jan-14 20:33N 34°36' E 135°07'9 8.8
2017-Jan-14 19:33N 34°27' E 135°05'1413.8
2017-Jan-14 18:33N 34°14' E 135°00'237 6.9
2017-Jan-13 08:07N 35°04' E 139°41'814.6
2017-Jan-13 07:33N 35°11' E 139°45'9 9.5
2017-Jan-13 06:33N 35°21' E 139°42'8 7.6
2017-Jan-13 05:33N 35°28' E 139°41'0 0.0
2017-Jan-13 04:33N 35°28' E 139°41'0 0.0
2017-Jan-13 03:33N 35°28' E 139°41'0 0.0
2017-Jan-13 02:33N 35°28' E 139°41'0 0.0
2017-Jan-13 01:33N 35°28' E 139°41'0 0.0
2017-Jan-13 00:33N 35°28' E 139°41'0 0.0
2017-Jan-12 23:33N 35°28' E 139°41'0 0.0
2017-Jan-12 22:33N 35°28' E 139°41'0 0.0
2017-Jan-12 21:33N 35°28' E 139°41'0 0.0
2017-Jan-12 20:33N 35°28' E 139°41'0 0.0
2017-Jan-12 19:33N 35°28' E 139°41'0 0.0
2017-Jan-12 18:33N 35°28' E 139°41'0 0.0
2017-Jan-12 17:33N 35°28' E 139°41'0 0.0
2017-Jan-12 16:33N 35°28' E 139°41'0 0.0
2017-Jan-12 15:33N 35°28' E 139°41'0 0.0
2017-Jan-12 14:33N 35°28' E 139°41'0 0.0
2017-Jan-12 13:33N 35°28' E 139°41'0 0.0
2017-Jan-12 12:33N 35°28' E 139°41'0 0.0
2017-Jan-12 11:33N 35°28' E 139°41'0 0.0
2017-Jan-12 10:33N 35°28' E 139°41'0 0.0
2017-Jan-12 09:33N 35°28' E 139°41'0 0.0
2017-Jan-12 08:33N 35°28' E 139°41'0 0.0
2017-Jan-12 07:33N 35°28' E 139°41'0 0.0
2017-Jan-12 06:33N 35°28' E 139°41'0 0.1
2017-Jan-12 05:33N 35°28' E 139°41'1 0.6
2017-Jan-12 04:32N 35°28' E 139°41'0 0.0
2017-Jan-12 03:32N 35°28' E 139°41'0 0.0
2017-Jan-12 02:29N 35°28' E 139°41'0 0.0
2017-Jan-12 01:29N 35°28' E 139°41'0 0.0
2017-Jan-12 00:32N 35°28' E 139°41'0 0.3
2017-Jan-11 23:33N 35°28' E 139°42'3 2.7
2017-Jan-11 22:31N 35°26' E 139°45'0 0.0
2017-Jan-11 21:31N 35°26' E 139°45'0 0.0
2017-Jan-11 20:31N 35°26' E 139°45'0 0.0
2017-Jan-11 19:31N 35°26' E 139°45'0 0.0
2017-Jan-11 18:31N 35°26' E 139°45'0 0.0
2017-Jan-11 17:31N 35°26' E 139°45'0 0.1
2017-Jan-11 16:28N 35°26' E 139°45'0 0.0
2017-Jan-11 15:31N 35°26' E 139°45'0 0.0
2017-Jan-11 14:31N 35°26' E 139°45'0 0.0
2017-Jan-11 13:31N 35°26' E 139°45'0 0.0
2017-Jan-11 12:31N 35°26' E 139°45'0 0.0
2017-Jan-11 11:31N 35°26' E 139°45'0 0.1
2017-Jan-11 10:31N 35°26' E 139°44'0 0.0
2017-Jan-11 09:31N 35°26' E 139°44'0 0.1
2017-Jan-11 08:31N 35°26' E 139°45'0 0.0
2017-Jan-11 07:31N 35°26' E 139°45'0 0.0
2017-Jan-11 06:31N 35°26' E 139°45'0 0.1
2017-Jan-11 05:31N 35°26' E 139°44'0 0.0
2017-Jan-11 04:31N 35°26' E 139°44'0 0.0
2017-Jan-11 03:31N 35°26' E 139°44'0 0.0
2017-Jan-11 02:31N 35°26' E 139°44'0 0.0
2017-Jan-11 01:31N 35°26' E 139°44'0 0.1
2017-Jan-11 00:34N 35°26' E 139°45'9 8.6
2017-Jan-10 23:34N 35°18' E 139°45'1110.6
2017-Jan-10 22:33N 35°07' E 139°46'  
Track history (hours):
 
Tides and Currents Weather Stations Pressure Air Temp Water Temp Dewpoint Dewpoint Depression Visibility Wind Speed Wind Dir Waves Ship Positions

Aniara

Last reported at 2017-Jan-16 06:31 UTC. Time now 2017-Jan-23 14:48 UTC.
Position N 34°03' E 134°57'.

Length 232 m; draft 8.9 m.

Type: Cargo ship. MMSI: 266282000.

Date/timePositionNaut miles runAvg speedWind from/ knotsBaromVisibWave heightAir tempDewpointWater temp
2017-Jan-16 06:31N 34°03' E 134°57'1916.4
2017-Jan-16 05:22N 34°22' E 135°00'1315.5
2017-Jan-16 04:33N 34°33' E 135°07'1312.9
2017-Jan-16 03:33N 34°34' E 134°51'7 6.6
2017-Jan-16 02:33N 34°40' E 134°48'3 0.1
2017-Jan-14 23:18N 34°43' E 134°51'4 4.9
2017-Jan-14 22:28N 34°39' E 134°49'6 6.4
2017-Jan-14 21:33N 34°37' E 134°56'9 9.2
2017-Jan-14 20:33N 34°36' E 135°07'9 8.8
2017-Jan-14 19:33N 34°27' E 135°05'1413.8
2017-Jan-14 18:33N 34°14' E 135°00'237 6.9
2017-Jan-13 08:07N 35°04' E 139°41'814.6
2017-Jan-13 07:33N 35°11' E 139°45'9 9.5
2017-Jan-13 06:33N 35°21' E 139°42'8 7.6
2017-Jan-13 05:33N 35°28' E 139°41'0 0.0
2017-Jan-13 04:33N 35°28' E 139°41'0 0.0
2017-Jan-13 03:33N 35°28' E 139°41'0 0.0
2017-Jan-13 02:33N 35°28' E 139°41'0 0.0
2017-Jan-13 01:33N 35°28' E 139°41'0 0.0
2017-Jan-13 00:33N 35°28' E 139°41'0 0.0
2017-Jan-12 23:33N 35°28' E 139°41'0 0.0
2017-Jan-12 22:33N 35°28' E 139°41'0 0.0
2017-Jan-12 21:33N 35°28' E 139°41'0 0.0
2017-Jan-12 20:33N 35°28' E 139°41'0 0.0
2017-Jan-12 19:33N 35°28' E 139°41'0 0.0
2017-Jan-12 18:33N 35°28' E 139°41'0 0.0
2017-Jan-12 17:33N 35°28' E 139°41'0 0.0
2017-Jan-12 16:33N 35°28' E 139°41'0 0.0
2017-Jan-12 15:33N 35°28' E 139°41'0 0.0
2017-Jan-12 14:33N 35°28' E 139°41'0 0.0
2017-Jan-12 13:33N 35°28' E 139°41'0 0.0
2017-Jan-12 12:33N 35°28' E 139°41'0 0.0
2017-Jan-12 11:33N 35°28' E 139°41'0 0.0
2017-Jan-12 10:33N 35°28' E 139°41'0 0.0
2017-Jan-12 09:33N 35°28' E 139°41'0 0.0
2017-Jan-12 08:33N 35°28' E 139°41'0 0.0
2017-Jan-12 07:33N 35°28' E 139°41'0 0.0
2017-Jan-12 06:33N 35°28' E 139°41'0 0.1
2017-Jan-12 05:33N 35°28' E 139°41'1 0.6
2017-Jan-12 04:32N 35°28' E 139°41'0 0.0
2017-Jan-12 03:32N 35°28' E 139°41'0 0.0
2017-Jan-12 02:29N 35°28' E 139°41'0 0.0
2017-Jan-12 01:29N 35°28' E 139°41'0 0.0
2017-Jan-12 00:32N 35°28' E 139°41'0 0.3
2017-Jan-11 23:33N 35°28' E 139°42'3 2.7
2017-Jan-11 22:31N 35°26' E 139°45'0 0.0
2017-Jan-11 21:31N 35°26' E 139°45'0 0.0
2017-Jan-11 20:31N 35°26' E 139°45'0 0.0
2017-Jan-11 19:31N 35°26' E 139°45'0 0.0
2017-Jan-11 18:31N 35°26' E 139°45'0 0.0
2017-Jan-11 17:31N 35°26' E 139°45'0 0.1
2017-Jan-11 16:28N 35°26' E 139°45'0 0.0
2017-Jan-11 15:31N 35°26' E 139°45'0 0.0
2017-Jan-11 14:31N 35°26' E 139°45'0 0.0
2017-Jan-11 13:31N 35°26' E 139°45'0 0.0
2017-Jan-11 12:31N 35°26' E 139°45'0 0.0
2017-Jan-11 11:31N 35°26' E 139°45'0 0.1
2017-Jan-11 10:31N 35°26' E 139°44'0 0.0
2017-Jan-11 09:31N 35°26' E 139°44'0 0.1
2017-Jan-11 08:31N 35°26' E 139°45'0 0.0
2017-Jan-11 07:31N 35°26' E 139°45'0 0.0
2017-Jan-11 06:31N 35°26' E 139°45'0 0.1
2017-Jan-11 05:31N 35°26' E 139°44'0 0.0
2017-Jan-11 04:31N 35°26' E 139°44'0 0.0
2017-Jan-11 03:31N 35°26' E 139°44'0 0.0
2017-Jan-11 02:31N 35°26' E 139°44'0 0.0
2017-Jan-11 01:31N 35°26' E 139°44'0 0.1
2017-Jan-11 00:34N 35°26' E 139°45'9 8.6
2017-Jan-10 23:34N 35°18' E 139°45'1110.6
2017-Jan-10 22:33N 35°07' E 139°46'  

Dump ship's entire track history